This is the latest recevied weather packets stored in our database for station/object DB0NU-15. If no packets are shown the sender has not sent any weather packets the latest 10 day(s).
| Time | Temp. | Humidity | Pressure | Rain* | Wind** | Luminosity | Snow |
|---|---|---|---|---|---|---|---|
| 1778006452 | 12.22° C | 97% | 1007.5 hPa | 0.51 mm | - | - | - |
| 1778005849 | 12.22° C | 97% | 1007.3 hPa | 1.02 mm | - | - | - |
| 1778005245 | 12.22° C | 97% | 1007.4 hPa | 1.52 mm | - | - | - |
| 1778004642 | 12.22° C | 97% | 1007.4 hPa | 1.78 mm | - | - | - |
| 1778004038 | 12.22° C | 97% | 1007.1 hPa | 2.79 mm | - | - | - |
| 1778003435 | 12.22° C | 97% | 1006.9 hPa | 3.3 mm | - | - | - |
| 1778002832 | 12.22° C | 96% | 1007.2 hPa | 3.56 mm | - | - | - |
| 1778002228 | 12.78° C | 96% | 1007.3 hPa | 3.05 mm | - | - | - |
| 1778001625 | 12.78° C | 96% | 1007.5 hPa | 2.03 mm | - | - | - |
| 1778001021 | 12.78° C | 96% | 1007.6 hPa | 1.78 mm | - | - | - |
| 1777999272 | 13.33° C | 93% | 1007.4 hPa | 2.79 mm | - | - | - |
| 1777998668 | 13.89° C | 91% | 1007 hPa | 3.81 mm | - | - | - |
| 1777998064 | 13.89° C | 90% | 1006.8 hPa | 3.81 mm | - | - | - |
| 1777997461 | 13.89° C | 90% | 1006.5 hPa | 3.81 mm | - | - | - |
| 1777996857 | 14.44° C | 90% | 1006.7 hPa | 3.3 mm | - | - | - |
| 1777996254 | 14.44° C | 88% | 1007.1 hPa | 2.03 mm | - | - | - |
| 1777995651 | 14.44° C | 88% | 1007.1 hPa | 1.27 mm | - | - | - |
| 1777995047 | 18.33° C | 68% | 1006.8 hPa | 0 mm | - | - | - |
| 1777994444 | 19.44° C | 61% | 1006.5 hPa | 0 mm | - | - | - |
| 1777993236 | 20° C | 58% | 1006.5 hPa | 0 mm | - | - | - |
| 1777992028 | 20° C | 56% | 1006.6 hPa | 0 mm | - | - | - |
| 1777991425 | 20° C | 55% | 1006.8 hPa | 0 mm | - | - | - |
| 1777990822 | 20.56° C | 55% | 1006.9 hPa | 0 mm | - | - | - |
| 1777989675 | 21.11° C | 52% | 1007 hPa | 0 mm | - | - | - |
| 1777989072 | 21.11° C | 54% | 1007.2 hPa | 0 mm | - | - | - |
* Rain latest hour (hover to see other rain measurements)
** Current wind speed in m/s (hover to see current wind gust speed)